Time;durP1;ratioP1;P1;durP2;ratioP2;P2;SDS_P1;SDS_P2;PMS_P1;PMS_P2;Temp;Humidity;BMP_temperature;BMP_pressure;BME280_temperature;BME280_humidity;BME280_pressure;Samples;Min_cycle;Max_cycle;Signal;HPM_P1;HPM_P2
2021/07/06 00:00:45;;;;;;;13.50;11.73;;;;;;;18.78;75.94;96360.34;5024228;28;20045;-62
2021/07/06 00:03:10;;;;;;;17.67;11.70;;;;;;;18.74;76.56;96354.03;5023554;28;20029;-62
2021/07/06 00:05:36;;;;;;;12.10;10.93;;;;;;;18.91;75.71;96349.97;5026040;28;20042;-63
2021/07/06 00:08:01;;;;;;;13.73;11.38;;;;;;;18.87;75.90;96357.72;5026000;28;20489;-62
2021/07/06 00:10:27;;;;;;;14.50;10.85;;;;;;;18.99;75.23;96356.97;5026041;28;20466;-62
2021/07/06 00:12:54;;;;;;;14.07;11.23;;;;;;;18.90;74.92;96328.75;5024223;28;20496;-64
2021/07/06 00:15:23;;;;;;;12.00;10.75;;;;;;;19.15;74.39;96356.94;5026010;28;20083;-62
2021/07/06 00:17:49;;;;;;;12.70;11.32;;;;;;;19.06;74.83;96348.34;5025501;28;20102;-63
2021/07/06 00:20:15;;;;;;;13.27;11.50;;;;;;;18.49;75.23;96280.97;5023906;28;20436;-64
2021/07/06 00:22:41;;;;;;;12.48;11.27;;;;;;;19.05;75.33;96349.59;5025693;28;20038;-63
2021/07/06 00:25:08;;;;;;;12.95;11.18;;;;;;;19.17;74.49;96353.69;5024013;28;20417;-62
2021/07/06 00:27:34;;;;;;;12.00;10.85;;;;;;;19.09;74.49;96353.09;5024609;28;20136;-62
2021/07/06 00:29:59;;;;;;;12.90;11.20;;;;;;;19.09;74.87;96358.72;5024234;28;20133;-62
2021/07/06 00:32:24;;;;;;;12.60;11.23;;;;;;;18.69;74.79;96301.25;5025559;28;20492;-63
2021/07/06 00:34:50;;;;;;;12.68;11.43;;;;;;;19.22;74.51;96356.72;5024500;28;20482;-63
2021/07/06 00:37:15;;;;;;;14.52;11.13;;;;;;;16.94;73.56;95994.75;5020072;28;20042;-63
2021/07/06 00:39:41;;;;;;;13.23;11.85;;;;;;;18.80;75.60;96366.31;5005844;28;20053;-63
2021/07/06 00:42:08;;;;;;;12.27;11.07;;;;;;;18.52;78.43;96350.19;5003895;28;20121;-63
2021/07/06 00:44:34;;;;;;;12.75;11.65;;;;;;;18.82;77.35;96366.66;5004462;28;20390;-63
2021/07/06 00:47:00;;;;;;;13.52;10.98;;;;;;;18.96;75.83;96355.06;5004075;28;20068;-63
2021/07/06 00:49:26;;;;;;;18.15;11.45;;;;;;;18.96;76.07;96357.88;5004066;28;20048;-62
2021/07/06 00:51:51;;;;;;;13.07;11.23;;;;;;;18.98;75.65;96374.25;5005209;28;20421;-61
2021/07/06 00:54:17;;;;;;;16.15;11.20;;;;;;;18.52;75.36;96302.50;5003452;28;20041;-61
2021/07/06 00:56:44;;;;;;;13.07;11.63;;;;;;;18.97;75.76;96359.44;5003698;28;20421;-62
2021/07/06 00:59:10;;;;;;;13.02;11.10;;;;;;;19.05;74.84;96374.84;5003317;28;20029;-63
2021/07/06 01:01:36;;;;;;;14.88;11.18;;;;;;;18.88;75.39;96336.81;5003768;28;20041;-61
2021/07/06 01:04:02;;;;;;;12.52;10.80;;;;;;;18.49;75.47;96292.19;5003893;28;20421;-62
2021/07/06 01:06:27;;;;;;;11.77;10.63;;;;;;;19.07;75.35;96366.78;5003735;28;20144;-62
2021/07/06 01:08:53;;;;;;;14.85;11.32;;;;;;;18.86;75.88;96342.09;5005038;28;20635;-61
2021/07/06 01:11:19;;;;;;;13.65;11.43;;;;;;;18.88;76.23;96370.50;5005159;28;20037;-61
2021/07/06 01:13:45;;;;;;;12.27;10.70;;;;;;;19.01;75.39;96374.16;5003358;28;20571;-61
2021/07/06 01:16:10;;;;;;;14.30;11.65;;;;;;;18.95;76.01;96373.09;5003344;28;20038;-62
2021/07/06 01:18:36;;;;;;;13.32;10.93;;;;;;;18.90;76.17;96384.91;5003226;28;20077;-62
2021/07/06 01:21:01;;;;;;;14.43;11.10;;;;;;;18.83;76.29;96379.44;5005274;28;20041;-61
2021/07/06 01:23:29;;;;;;;13.88;11.93;;;;;;;18.94;76.76;96385.56;5003052;28;20053;-63
2021/07/06 01:25:57;;;;;;;16.20;10.85;;;;;;;18.86;76.56;96381.38;5004780;28;20038;-62
2021/07/06 01:28:23;;;;;;;12.55;11.32;;;;;;;18.49;77.11;96331.44;5003255;28;20029;-62
2021/07/06 01:30:48;;;;;;;13.48;11.70;;;;;;;18.71;77.03;96376.56;5002926;28;20108;-62
2021/07/06 01:33:25;;;;;;;13.07;11.32;;;;;;;18.30;77.53;96318.28;5003332;28;20036;-61
2021/07/06 01:36:00;;;;;;;12.40;11.18;;;;;;;18.70;77.47;96384.19;5002811;28;20080;-62
2021/07/06 01:38:27;;;;;;;13.20;11.80;;;;;;;18.69;77.57;96393.03;5003026;28;20030;-62
2021/07/06 01:40:52;;;;;;;13.02;11.50;;;;;;;18.73;77.75;96379.72;5003195;28;20034;-62
2021/07/06 01:43:18;;;;;;;12.27;11.00;;;;;;;18.64;78.09;96360.69;5004469;28;20485;-62
2021/07/06 01:45:44;;;;;;;14.52;12.65;;;;;;;18.78;77.93;96370.78;5004633;28;20490;-62
2021/07/06 01:48:09;;;;;;;18.13;12.30;;;;;;;18.84;77.25;96374.63;5003665;28;20034;-63
2021/07/06 01:50:38;;;;;;;15.00;12.13;;;;;;;18.36;76.69;96282.88;5002832;28;20037;-62
2021/07/06 01:53:10;;;;;;;12.95;11.60;;;;;;;18.89;76.65;96377.69;5004431;28;20340;-62
2021/07/06 01:55:43;;;;;;;15.85;11.45;;;;;;;18.90;76.27;96368.06;5004134;28;20033;-65
2021/07/06 01:58:10;;;;;;;;;;;;;;;18.84;76.39;96381.00;5003438;28;20038;-62
2021/07/06 02:00:39;;;;;;;11.98;10.77;;;;;;;18.48;77.06;96335.47;5003280;28;19921;-62
2021/07/06 02:03:05;;;;;;;14.18;11.10;;;;;;;18.83;77.34;96373.84;5002693;28;20493;-62
2021/07/06 02:05:39;;;;;;;15.75;11.35;;;;;;;18.90;76.57;96384.09;5004388;28;20146;-62
2021/07/06 02:08:08;;;;;;;13.00;11.85;;;;;;;18.88;77.00;96384.53;5003941;28;20034;-62
2021/07/06 02:10:34;;;;;;;12.98;11.57;;;;;;;18.81;77.74;96384.69;5004312;28;20046;-62
2021/07/06 02:13:00;;;;;;;13.63;12.10;;;;;;;18.80;78.22;96383.13;5002245;28;20044;-64
2021/07/06 02:15:27;;;;;;;13.70;11.77;;;;;;;18.74;77.44;96356.03;5003851;28;20034;-62
2021/07/06 02:17:52;;;;;;;13.10;11.32;;;;;;;18.75;78.46;96371.63;5002534;28;20535;-62
2021/07/06 02:20:19;;;;;;;14.35;12.30;;;;;;;18.83;77.77;96389.88;5002564;28;20221;-62
2021/07/06 02:22:45;;;;;;;13.73;11.65;;;;;;;18.42;80.14;96409.34;5003458;28;20123;-61
2021/07/06 02:25:13;;;;;;;15.23;12.82;;;;;;;18.36;82.03;96395.03;5002205;28;20034;-62
2021/07/06 02:27:39;;;;;;;15.10;12.77;;;;;;;18.39;82.44;96385.78;5002237;28;20133;-62
2021/07/06 02:30:07;;;;;;;14.68;12.40;;;;;;;18.49;81.02;96398.75;5002038;28;20156;-62
2021/07/06 02:32:32;;;;;;;13.05;11.60;;;;;;;18.19;80.39;96362.59;5003694;28;20052;-64
2021/07/06 02:34:58;;;;;;;15.98;13.07;;;;;;;18.17;83.10;96393.06;5004433;28;20034;-63
2021/07/06 02:37:23;;;;;;;14.95;12.07;;;;;;;18.37;81.58;96396.59;5002069;28;20403;-61
2021/07/06 02:39:48;;;;;;;13.45;11.57;;;;;;;17.91;80.92;96324.00;5003535;28;20109;-61
2021/07/06 02:42:14;;;;;;;13.88;10.68;;;;;;;18.36;80.96;96400.63;5003588;28;20030;-62
2021/07/06 02:44:40;;;;;;;13.00;11.25;;;;;;;18.45;79.67;96397.25;5001938;28;20038;-62
2021/07/06 02:47:05;;;;;;;12.55;10.15;;;;;;;18.15;79.31;96367.47;5003482;28;20034;-62
2021/07/06 02:49:31;;;;;;;11.50;10.30;;;;;;;18.40;79.78;96409.00;5001907;28;20049;-61
2021/07/06 02:51:56;;;;;;;13.15;11.48;;;;;;;18.30;80.50;96401.59;5002155;28;20053;-63
2021/07/06 02:54:22;;;;;;;13.02;11.13;;;;;;;17.89;79.94;96320.88;5003756;28;20499;-62
2021/07/06 02:56:47;;;;;;;16.55;11.20;;;;;;;18.41;80.15;96397.34;5003301;28;20048;-62
2021/07/06 02:59:12;;;;;;;12.75;11.25;;;;;;;18.21;80.93;96399.38;5003695;28;20483;-62
2021/07/06 03:01:38;;;;;;;13.57;11.52;;;;;;;18.22;81.16;96395.38;5007286;28;20401;-64
2021/07/06 03:04:03;;;;;;;13.45;11.20;;;;;;;18.09;79.91;96363.63;5005570;28;20042;-62
2021/07/06 03:06:30;;;;;;;12.23;10.23;;;;;;;17.24;80.33;96240.69;5005624;28;20104;-62
2021/07/06 03:08:56;;;;;;;13.70;11.45;;;;;;;18.05;82.12;96413.38;5007144;28;20034;-64
2021/07/06 03:11:24;;;;;;;11.60;10.40;;;;;;;18.19;81.41;96413.06;5007696;28;20092;-63
2021/07/06 03:13:50;;;;;;;14.43;10.85;;;;;;;18.28;80.95;96421.66;5005812;28;20041;-62
2021/07/06 03:16:16;;;;;;;10.93;9.93;;;;;;;18.44;80.00;96421.72;5006113;28;20034;-63
2021/07/06 03:18:41;;;;;;;13.45;10.85;;;;;;;18.54;80.01;96412.25;5005928;28;20088;-62
2021/07/06 03:21:07;;;;;;;13.93;10.60;;;;;;;18.57;79.17;96436.63;5005105;28;20034;-62
2021/07/06 03:23:32;;;;;;;13.45;9.70;;;;;;;18.20;78.67;96352.97;5005482;28;20567;-62
2021/07/06 03:25:58;;;;;;;14.07;10.88;;;;;;;17.85;79.21;96331.34;5005680;28;20123;-62
2021/07/06 03:28:23;;;;;;;12.35;10.55;;;;;;;18.55;79.54;96424.25;5007335;28;20080;-62
2021/07/06 03:30:49;;;;;;;15.18;10.75;;;;;;;18.51;79.97;96424.34;5005577;28;20030;-62
2021/07/06 03:33:14;;;;;;;15.45;10.88;;;;;;;18.38;80.66;96426.28;5006863;28;20516;-63
2021/07/06 03:35:40;;;;;;;11.35;10.18;;;;;;;18.47;79.74;96418.03;5006886;28;20417;-63
2021/07/06 03:38:06;;;;;;;17.35;11.45;;;;;;;18.46;80.31;96427.69;5006688;28;20418;-62
2021/07/06 03:40:33;;;;;;;13.15;10.63;;;;;;;18.49;79.87;96440.84;5021999;28;20044;-62
2021/07/06 03:42:59;;;;;;;14.05;10.48;;;;;;;18.19;80.45;96390.63;5005307;28;20030;-63
2021/07/06 03:45:25;;;;;;;18.27;11.15;;;;;;;18.55;79.77;96436.28;5004479;28;20508;-62
2021/07/06 03:47:52;;;;;;;11.98;10.75;;;;;;;18.70;79.42;96448.72;5006633;28;20113;-62
2021/07/06 03:50:20;;;;;;;11.88;10.68;;;;;;;18.69;78.90;96435.94;5004863;28;20037;-62
2021/07/06 03:52:50;;;;;;;13.48;10.52;;;;;;;18.88;78.31;96443.47;5004687;28;20066;-63
2021/07/06 03:55:16;;;;;;;11.13;9.98;;;;;;;18.84;78.38;96442.75;5021247;28;20044;-62
2021/07/06 03:57:43;;;;;;;13.75;10.85;;;;;;;18.84;78.98;96448.38;5004758;28;20120;-63
2021/07/06 04:00:13;;;;;;;12.77;10.68;;;;;;;18.34;78.60;96352.59;5006101;28;20521;-62
2021/07/06 04:02:39;;;;;;;13.95;10.50;;;;;;;19.02;77.58;96431.88;5021682;28;20065;-63
2021/07/06 04:05:07;;;;;;;16.25;9.73;;;;;;;19.13;77.33;96438.00;5004760;28;20060;-63
2021/07/06 04:07:33;;;;;;;10.18;9.27;;;;;;;19.03;77.68;96441.88;5004708;28;20032;-63
2021/07/06 04:09:59;;;;;;;12.05;10.50;;;;;;;19.12;77.67;96442.06;5006498;28;20033;-63
2021/07/06 04:12:24;;;;;;;14.45;10.77;;;;;;;19.13;77.74;96442.81;5005085;28;20943;-64
2021/07/06 04:14:50;;;;;;;11.82;9.65;;;;;;;19.35;76.54;96444.66;5004548;28;20041;-62
2021/07/06 04:17:15;;;;;;;13.13;10.52;;;;;;;19.30;76.50;96445.19;5003816;28;20088;-63
2021/07/06 04:19:41;;;;;;;12.07;10.23;;;;;;;18.95;77.35;96408.81;5020517;28;20046;-62
2021/07/06 04:22:06;;;;;;;12.73;10.57;;;;;;;19.25;76.76;96433.69;5004192;28;20033;-63
2021/07/06 04:24:32;;;;;;;19.50;9.75;;;;;;;19.25;77.86;96459.75;5004464;28;20033;-63
2021/07/06 04:26:58;;;;;;;13.30;10.50;;;;;;;19.30;77.36;96436.78;5005636;28;20045;-63
2021/07/06 04:29:24;;;;;;;11.25;9.98;;;;;;;19.56;76.21;96460.16;5005815;28;20053;-64
2021/07/06 04:31:49;;;;;;;14.27;10.30;;;;;;;19.67;75.25;96460.66;5004166;28;20124;-62
2021/07/06 04:34:15;;;;;;;16.92;11.70;;;;;;;19.25;75.47;96355.84;5020140;28;20034;-62
2021/07/06 04:36:40;;;;;;;13.48;9.80;;;;;;;19.97;74.00;96460.19;5003617;28;20925;-63
2021/07/06 04:39:06;;;;;;;17.92;10.25;;;;;;;20.01;74.31;96458.06;5003884;28;20038;-62
2021/07/06 04:41:31;;;;;;;15.50;10.00;;;;;;;19.79;74.89;96431.03;5004280;28;20401;-64
2021/07/06 04:43:57;;;;;;;16.02;10.05;;;;;;;19.34;75.97;96409.41;5005460;28;20038;-63
2021/07/06 04:46:22;;;;;;;19.17;12.75;;;;;;;19.07;81.16;96459.44;5004014;28;20534;-63
2021/07/06 04:48:48;;;;;;;26.08;12.85;;;;;;;19.43;79.05;96457.28;5003590;28;20548;-63
2021/07/06 04:51:14;;;;;;;18.55;11.23;;;;;;;19.57;77.17;96444.09;5003506;28;20503;-62
2021/07/06 04:53:41;;;;;;;16.33;10.05;;;;;;;19.73;76.43;96469.34;5005514;28;20038;-62
2021/07/06 04:56:07;;;;;;;14.13;11.68;;;;;;;19.80;76.61;96457.88;5003694;28;20091;-62
2021/07/06 04:58:32;;;;;;;20.88;11.13;;;;;;;20.06;75.69;96449.06;5013140;28;20470;-62
2021/07/06 05:01:00;;;;;;;16.85;14.40;;;;;;;19.45;74.83;96341.69;5005006;28;20538;-61
2021/07/06 05:03:26;;;;;;;13.95;11.63;;;;;;;20.28;74.42;96477.41;5003433;28;20121;-60
2021/07/06 05:05:51;;;;;;;18.27;12.20;;;;;;;19.37;81.12;96492.78;5003491;28;20121;-62
2021/07/06 05:08:17;;;;;;;21.38;13.18;;;;;;;19.68;80.34;96472.69;5005172;28;20094;-63
2021/07/06 05:10:43;;;;;;;18.58;12.45;;;;;;;19.69;78.49;96441.34;5005077;28;20111;-62
2021/07/06 05:13:08;;;;;;;24.85;12.68;;;;;;;19.90;77.69;96442.75;5003747;28;20026;-62
2021/07/06 05:15:34;;;;;;;22.50;12.68;;;;;;;20.29;76.72;96478.97;5005868;28;20434;-62
2021/07/06 05:17:59;;;;;;;22.33;13.93;;;;;;;20.57;75.82;96489.34;5003535;28;20129;-63
2021/07/06 05:20:25;;;;;;;18.42;12.82;;;;;;;20.71;74.54;96478.44;5003530;28;20065;-60
2021/07/06 05:22:50;;;;;;;19.35;11.93;;;;;;;20.61;73.63;96442.97;5004035;28;20497;-63
2021/07/06 05:25:16;;;;;;;18.23;12.52;;;;;;;21.05;73.06;96485.44;5002756;28;20580;-62
2021/07/06 05:27:43;;;;;;;23.67;13.27;;;;;;;20.88;72.97;96425.63;5004599;28;20044;-60
2021/07/06 05:30:09;;;;;;;17.25;11.68;;;;;;;21.16;71.58;96452.88;5004957;28;20604;-61
2021/07/06 05:32:37;;;;;;;15.18;11.38;;;;;;;21.64;70.29;96494.66;5004401;28;20034;-60
2021/07/06 05:35:04;;;;;;;16.05;11.55;;;;;;;21.86;70.35;96489.09;5003217;28;20092;-64
2021/07/06 05:37:29;;;;;;;18.17;12.90;;;;;;;21.85;69.69;96451.63;5002708;28;20539;-61
2021/07/06 05:39:55;;;;;;;15.98;11.45;;;;;;;21.91;68.79;96463.91;5002534;28;20048;-62
2021/07/06 05:42:21;;;;;;;21.30;11.02;;;;;;;21.86;68.45;96444.75;5003094;28;20041;-61
2021/07/06 05:44:46;;;;;;;23.65;12.82;;;;;;;22.23;68.67;96503.00;5002643;28;20053;-60
2021/07/06 05:47:12;;;;;;;16.13;11.35;;;;;;;22.53;67.44;96497.88;5004247;28;20038;-61
2021/07/06 05:49:38;;;;;;;12.85;10.90;;;;;;;22.78;67.14;96503.38;5004183;28;20046;-62
2021/07/06 05:52:04;;;;;;;13.68;11.13;;;;;;;22.32;66.74;96426.84;5002725;28;20064;-64
2021/07/06 05:54:29;;;;;;;12.63;10.63;;;;;;;23.36;63.96;96521.19;5002644;28;20046;-61
2021/07/06 05:56:55;;;;;;;17.27;10.68;;;;;;;23.49;63.10;96516.22;5007181;28;20611;-61
2021/07/06 05:59:20;;;;;;;14.88;10.40;;;;;;;23.55;62.09;96488.88;5004206;28;20048;-61
2021/07/06 06:01:46;;;;;;;11.57;10.45;;;;;;;23.79;61.76;96526.59;5010204;28;20463;-61
2021/07/06 06:04:11;;;;;;;13.05;10.20;;;;;;;24.10;60.01;96524.47;5021436;28;20034;-62
2021/07/06 06:06:37;;;;;;;10.90;9.90;;;;;;;24.36;57.84;96524.94;5023496;28;20100;-60
2021/07/06 06:09:03;;;;;;;12.07;10.45;;;;;;;24.49;56.62;96529.16;5023239;28;20224;-64
2021/07/06 06:11:28;;;;;;;11.07;9.98;;;;;;;24.52;56.39;96536.69;5023288;28;20140;-61
2021/07/06 06:13:54;;;;;;;10.98;9.70;;;;;;;24.39;56.35;96513.41;5014968;28;20429;-64
2021/07/06 06:16:19;;;;;;;11.70;10.18;;;;;;;24.64;56.16;96541.41;5003236;28;20140;-67
2021/07/06 06:18:45;;;;;;;13.98;10.13;;;;;;;24.77;55.32;96542.00;5002980;28;20138;-63
2021/07/06 06:21:11;;;;;;;12.05;10.23;;;;;;;24.71;56.31;96545.97;5003864;28;20045;-63
2021/07/06 06:23:36;;;;;;;11.32;10.30;;;;;;;24.55;54.09;96486.81;5001992;28;20038;-63
2021/07/06 06:26:02;;;;;;;11.23;9.90;;;;;;;25.39;53.96;96544.38;5019038;28;20427;-64
2021/07/06 06:28:28;;;;;;;11.60;10.40;;;;;;;25.39;52.96;96521.66;5023098;28;20041;-63
2021/07/06 06:30:55;;;;;;;12.20;10.75;;;;;;;25.57;53.20;96541.41;5023437;28;20500;-61
2021/07/06 06:33:21;;;;;;;11.10;10.00;;;;;;;25.51;53.59;96537.66;5023280;28;20128;-61
2021/07/06 06:35:46;;;;;;;15.02;10.00;;;;;;;24.98;53.85;96498.50;5023822;28;20037;-65
2021/07/06 06:38:12;;;;;;;10.95;10.05;;;;;;;25.47;54.20;96542.72;5017908;28;20406;-65
2021/07/06 06:40:37;;;;;;;10.93;9.82;;;;;;;23.95;54.90;96279.38;5003846;28;20037;-64
2021/07/06 06:43:03;;;;;;;11.90;10.57;;;;;;;25.89;54.61;96549.09;5003447;28;20088;-57
2021/07/06 06:45:30;;;;;;;12.40;11.15;;;;;;;25.14;55.84;96432.13;5003584;28;20476;-66
2021/07/06 06:47:57;;;;;;;12.50;10.85;;;;;;;25.61;55.67;96471.09;5002221;28;20481;-66
2021/07/06 06:50:23;;;;;;;11.35;10.40;;;;;;;24.90;55.25;96321.56;5003113;28;20567;-63
2021/07/06 06:52:48;;;;;;;11.30;10.13;;;;;;;26.51;53.48;96541.34;5003174;28;20034;-61
2021/07/06 06:55:14;;;;;;;12.40;11.25;;;;;;;26.59;53.51;96534.03;5003341;28;20141;-63
2021/07/06 06:57:39;;;;;;;12.68;11.27;;;;;;;26.78;51.39;96540.34;5001664;28;20456;-60
2021/07/06 07:00:08;;;;;;;10.50;9.70;;;;;;;26.81;48.73;96551.50;5003298;28;20578;-63
2021/07/06 07:02:33;;;;;;;10.73;9.82;;;;;;;26.86;49.11;96542.31;5003117;28;20038;-61
2021/07/06 07:04:59;;;;;;;10.98;9.98;;;;;;;27.05;49.08;96537.97;5003477;28;20034;-60
2021/07/06 07:07:24;;;;;;;11.40;10.27;;;;;;;26.79;49.16;96502.91;5002940;28;20038;-60
2021/07/06 07:09:50;;;;;;;12.82;11.07;;;;;;;27.04;48.61;96535.63;5003433;28;20427;-69
2021/07/06 07:12:17;;;;;;;12.57;11.32;;;;;;;27.07;48.24;96535.44;5003332;28;20100;-70
2021/07/06 07:14:43;;;;;;;12.38;11.18;;;;;;;27.25;48.92;96535.19;5003166;28;20424;-66
2021/07/06 07:17:10;;;;;;;15.20;11.02;;;;;;;27.39;48.40;96536.50;5003312;28;20063;-70
2021/07/06 07:19:36;;;;;;;11.23;10.23;;;;;;;27.23;48.35;96526.41;5001828;28;20068;-65
2021/07/06 07:22:03;;;;;;;10.75;9.75;;;;;;;27.43;48.10;96509.41;5001487;28;20137;-66
2021/07/06 07:24:29;;;;;;;10.82;9.85;;;;;;;27.87;46.50;96512.88;5003183;28;20068;-64
2021/07/06 07:26:56;;;;;;;11.05;10.15;;;;;;;28.37;46.08;96538.38;5001399;28;20424;-71
2021/07/06 07:29:21;;;;;;;9.73;9.02;;;;;;;28.83;44.23;96524.94;5002893;28;20041;-66
2021/07/06 07:31:47;;;;;;;8.93;8.32;;;;;;;29.32;42.67;96524.63;5002866;28;20030;-60
2021/07/06 07:34:12;;;;;;;9.02;8.32;;;;;;;29.23;42.73;96527.63;5001213;28;20037;-63
2021/07/06 07:36:40;;;;;;;11.95;9.93;;;;;;;28.83;44.04;96527.78;5002412;28;20137;-67
2021/07/06 07:39:06;;;;;;;8.20;7.53;;;;;;;28.84;44.60;96526.47;5001637;28;20045;-65
2021/07/06 07:41:32;;;;;;;8.32;7.68;;;;;;;26.97;44.43;96257.41;5002793;28;20041;-61
2021/07/06 07:43:58;;;;;;;8.25;7.45;;;;;;;28.07;44.77;96515.75;5002989;28;20442;-64
2021/07/06 07:46:24;;;;;;;8.77;7.82;;;;;;;27.94;45.25;96555.22;5001564;28;20046;-62
2021/07/06 07:48:50;;;;;;;7.47;6.78;;;;;;;26.45;46.20;96375.69;5004883;28;20042;-64
2021/07/06 07:51:17;;;;;;;7.88;6.50;;;;;;;27.34;45.93;96520.91;5004351;28;20847;-62
2021/07/06 07:53:42;;;;;;;7.55;6.85;;;;;;;27.26;45.94;96502.69;5006253;28;20403;-65
2021/07/06 07:56:08;;;;;;;7.70;7.00;;;;;;;27.77;46.60;96517.13;5005870;28;20132;-61
2021/07/06 07:58:33;;;;;;;7.43;6.60;;;;;;;27.09;46.22;96435.41;5004455;28;20033;-66
2021/07/06 08:01:00;;;;;;;8.02;7.18;;;;;;;27.75;46.37;96494.09;5006055;28;20489;-67
2021/07/06 08:03:25;;;;;;;8.70;7.80;;;;;;;28.17;46.11;96525.72;5006184;28;20280;-66
2021/07/06 08:05:51;;;;;;;9.85;8.68;;;;;;;28.22;45.98;96526.31;5004526;28;20083;-63
2021/07/06 08:08:19;;;;;;;12.00;7.95;;;;;;;28.00;46.60;96530.44;5003879;28;20116;-61
2021/07/06 08:10:46;;;;;;;9.25;7.88;;;;;;;27.96;46.77;96504.22;5005080;28;20034;-65
2021/07/06 08:13:12;;;;;;;7.80;7.30;;;;;;;28.50;45.05;96531.03;5003791;28;20496;-61
2021/07/06 08:15:38;;;;;;;8.30;7.50;;;;;;;28.54;46.28;96536.53;5005585;28;20034;-63
2021/07/06 08:18:03;;;;;;;9.13;8.40;;;;;;;28.74;44.89;96534.41;5005184;28;20092;-67
2021/07/06 08:20:29;;;;;;;8.18;7.47;;;;;;;28.81;44.23;96538.91;5003989;28;20115;-62
2021/07/06 08:22:56;;;;;;;8.02;7.25;;;;;;;28.33;42.58;96490.16;5005953;28;20568;-63
2021/07/06 08:25:25;;;;;;;8.65;7.72;;;;;;;28.51;43.21;96520.44;5005336;28;20042;-65
2021/07/06 08:27:50;;;;;;;8.43;7.63;;;;;;;28.54;42.26;96536.53;5005095;28;20033;-67
2021/07/06 08:30:16;;;;;;;8.50;7.65;;;;;;;28.87;42.02;96534.03;5004983;28;20390;-67
2021/07/06 08:32:41;;;;;;;8.93;7.13;;;;;;;29.10;41.51;96535.84;5004658;28;20117;-67
2021/07/06 08:35:07;;;;;;;7.88;7.20;;;;;;;29.10;40.09;96516.63;5003452;28;20583;-64
2021/07/06 08:37:33;;;;;;;7.82;7.15;;;;;;;29.20;39.97;96537.22;5013045;28;20060;-63
2021/07/06 08:39:59;;;;;;;8.38;7.05;;;;;;;28.73;41.17;96449.38;5023706;28;20136;-66
2021/07/06 08:42:26;;;;;;;7.85;7.13;;;;;;;29.12;39.75;96524.69;5025016;28;20092;-69
2021/07/06 08:44:52;;;;;;;8.13;7.30;;;;;;;29.15;40.31;96509.44;5023328;28;20045;-66
2021/07/06 08:47:18;;;;;;;6.88;6.47;;;;;;;28.94;40.05;96507.91;5025462;28;20251;-64
2021/07/06 08:49:47;;;;;;;7.07;6.65;;;;;;;29.03;40.23;96482.06;5021002;28;20042;-64
2021/07/06 08:52:14;;;;;;;10.80;9.68;;;;;;;29.16;40.68;96496.72;5004991;28;20061;-69
2021/07/06 08:54:40;;;;;;;7.55;7.05;;;;;;;28.65;40.77;96446.22;5005323;28;20084;-67
2021/07/06 08:57:06;;;;;;;10.68;9.57;;;;;;;28.93;40.93;96527.09;5004322;28;20361;-65
2021/07/06 08:59:39;;;;;;;9.15;8.38;;;;;;;28.33;41.10;96415.31;5005089;28;20052;-64
2021/07/06 09:02:06;;;;;;;8.32;7.55;;;;;;;28.69;40.57;96497.31;5004913;28;20037;-67
2021/07/06 09:04:46;;;;;;;8.27;7.57;;;;;;;29.10;40.88;96524.44;5004024;28;20045;-66
2021/07/06 09:07:12;;;;;;;7.20;6.65;;;;;;;28.88;40.44;96470.00;5003497;28;20112;-63
2021/07/06 09:09:38;;;;;;;9.18;8.10;;;;;;;29.17;42.02;96499.06;5003573;28;20042;-60
2021/07/06 09:12:04;;;;;;;7.82;7.03;;;;;;;29.30;41.70;96512.91;5003788;28;20041;-61
2021/07/06 09:14:33;;;;;;;10.13;6.90;;;;;;;29.81;40.11;96517.69;5002012;28;20119;-61
2021/07/06 09:17:10;;;;;;;7.32;6.63;;;;;;;29.54;40.52;96476.25;5001927;28;20042;-62
2021/07/06 09:19:37;;;;;;;7.97;7.18;;;;;;;29.88;39.83;96529.41;5003405;28;20053;-61
2021/07/06 09:22:13;;;;;;;7.78;7.07;;;;;;;29.84;40.07;96528.88;5003156;28;20076;-62
2021/07/06 09:24:40;;;;;;;7.03;6.53;;;;;;;30.22;40.04;96519.75;5003387;28;20618;-63
2021/07/06 09:27:27;;;;;;;7.57;6.95;;;;;;;30.00;39.43;96516.78;5001464;28;20036;-61
2021/07/06 09:30:18;;;;;;;7.95;7.20;;;;;;;30.02;38.20;96499.88;5003833;28;20037;-62
2021/07/06 09:32:54;;;;;;;7.20;6.50;;;;;;;30.22;38.30;96524.69;5002517;28;20132;-62
2021/07/06 09:35:29;;;;;;;7.72;7.03;;;;;;;29.89;37.09;96428.16;5002783;28;20041;-62
2021/07/06 09:38:01;;;;;;;7.32;6.82;;;;;;;30.51;36.55;96536.47;5013388;28;20042;-67
2021/07/06 09:40:37;;;;;;;7.10;6.70;;;;;;;28.92;36.99;96265.22;5014508;28;20419;-62
2021/07/06 09:43:35;;;;;;;7.55;7.05;;;;;;;30.68;36.00;96513.66;5006715;28;20120;-66
2021/07/06 09:46:04;;;;;;;8.30;7.60;;;;;;;30.45;35.11;96414.81;4987557;28;20516;-64
2021/07/06 09:48:32;;;;;;;7.63;6.70;;;;;;;31.29;35.51;96539.50;5010280;28;20037;-61
2021/07/06 09:51:18;;;;;;;7.97;7.22;;;;;;;31.38;35.49;96510.66;5014458;28;20404;-62
2021/07/06 09:53:48;;;;;;;7.00;6.60;;;;;;;31.41;35.03;96552.56;5023705;28;20126;-67
2021/07/06 09:56:17;;;;;;;7.47;7.07;;;;;;;31.68;36.24;96554.63;5022758;28;20510;-61
2021/07/06 09:58:57;;;;;;;7.70;7.20;;;;;;;30.39;37.22;96420.53;5019643;28;20047;-62
2021/07/06 10:01:25;;;;;;;7.53;7.03;;;;;;;30.24;38.54;96533.53;5023884;28;20044;-62
2021/07/06 10:03:52;;;;;;;7.90;7.20;;;;;;;30.26;39.54;96565.22;5023019;28;20041;-64
2021/07/06 10:06:29;;;;;;;8.23;7.60;;;;;;;30.00;39.35;96556.78;5010467;28;20044;-62
2021/07/06 10:08:56;;;;;;;9.70;7.53;;;;;;;30.11;40.28;96553.19;5015230;28;20236;-63
2021/07/06 10:11:23;;;;;;;7.95;7.22;;;;;;;29.65;39.08;96544.88;5011646;28;20038;-61
2021/07/06 10:13:51;;;;;;;8.35;7.65;;;;;;;29.44;39.65;96551.94;5023188;28;20050;-61
2021/07/06 10:16:17;;;;;;;8.25;7.32;;;;;;;29.01;39.82;96444.69;5023581;28;20038;-60
2021/07/06 10:18:44;;;;;;;7.93;7.20;;;;;;;29.79;39.73;96558.19;5018865;28;20056;-62
2021/07/06 10:21:10;;;;;;;7.80;7.18;;;;;;;29.49;40.34;96539.78;5022107;28;20037;-67
2021/07/06 10:23:38;;;;;;;10.57;9.55;;;;;;;29.43;40.16;96525.47;5020957;28;21784;-65
2021/07/06 10:26:06;;;;;;;8.48;7.68;;;;;;;29.45;39.67;96520.03;5010072;28;20570;-60
2021/07/06 10:28:32;;;;;;;6.45;6.05;;;;;;;29.29;40.02;96482.81;5019525;28;20030;-62
2021/07/06 10:31:15;;;;;;;7.78;6.78;;;;;;;30.12;39.38;96549.81;5004729;28;20022;-65
2021/07/06 10:33:42;;;;;;;7.88;7.05;;;;;;;30.39;37.93;96557.75;5021876;28;20044;-67
2021/07/06 10:36:08;;;;;;;8.15;7.00;;;;;;;29.50;37.82;96525.00;5012420;28;20026;-61
2021/07/06 10:38:33;;;;;;;7.60;7.10;;;;;;;29.97;38.50;96548.44;5016626;28;20029;-61
2021/07/06 10:41:34;;;;;;;7.50;6.88;;;;;;;30.28;38.41;96546.28;5003206;28;20460;-68
2021/07/06 10:44:02;;;;;;;7.57;7.07;;;;;;;29.59;38.81;96472.63;4971839;28;20111;-61
2021/07/06 10:46:41;;;;;;;7.78;7.18;;;;;;;29.97;38.84;96554.91;5021933;28;20033;-65
2021/07/06 10:49:26;;;;;;;7.70;7.20;;;;;;;29.93;39.08;96553.59;5015396;28;20060;-64
2021/07/06 10:51:53;;;;;;;7.70;7.10;;;;;;;29.70;38.89;96507.00;5013002;28;20033;-61
2021/07/06 10:54:22;;;;;;;7.03;6.63;;;;;;;30.19;37.76;96543.59;5011924;28;20690;-63
2021/07/06 10:56:49;;;;;;;7.43;7.00;;;;;;;29.94;38.08;96493.09;5017904;28;20117;-62
2021/07/06 10:59:34;;;;;;;7.75;7.13;;;;;;;29.91;39.38;96545.53;5015377;28;20068;-61
2021/07/06 11:02:21;;;;;;;8.15;7.55;;;;;;;30.65;38.90;96540.44;5017055;28;20064;-62
2021/07/06 11:04:46;;;;;;;7.38;6.68;;;;;;;29.73;39.59;96500.25;5003992;28;20573;-62
2021/07/06 11:07:13;;;;;;;7.22;6.72;;;;;;;30.05;38.35;96533.13;5001432;28;20030;-62
2021/07/06 11:09:38;;;;;;;8.32;7.68;;;;;;;30.35;37.90;96528.63;5014057;28;20038;-61
2021/07/06 11:12:21;;;;;;;8.52;7.45;;;;;;;30.30;37.42;96526.56;5017233;28;20041;-62
2021/07/06 11:14:59;;;;;;;10.57;9.55;;;;;;;30.11;38.11;96531.13;5009813;28;20448;-59
2021/07/06 11:17:42;;;;;;;9.98;8.98;;;;;;;30.10;37.98;96440.94;5002835;28;20142;-65
2021/07/06 11:20:09;;;;;;;8.60;7.70;;;;;;;30.70;38.26;96508.19;5008171;28;20026;-59
2021/07/06 11:22:54;;;;;;;8.43;7.72;;;;;;;30.73;38.92;96502.22;5016140;28;20100;-66
2021/07/06 11:25:21;;;;;;;8.30;7.50;;;;;;;30.92;35.81;96511.09;5022811;28;20056;-68